aviador You're here:

LFMD Decoded Metar

CANNES in FRANCE
Report Time2018-06-17 23:30:00
UTC Time2018-06-17 23:50:03
Flight Rules vfr VFR
WindVRB at 03 kt
Visibility9999 m
Phenomena:N/A
Clouds:N/A
Expected CloudBase > 1,200 ft AGL from Temp-Dew spread
CeilingNone
Temp20°C (ISA +5)
Dew Point17°C (83% RH)
QNH1013 hPa
Density Alt879 ft
Elevation30 ft
Report Wrong Elevation
Raw Report
METAR LFMD 172330Z AUTO VRB03KT CAVOK 20/17 Q1013=

Extra information for LFMD:More info

Metar Taf Metar & Taf Last 4 Metars F.Rules Stats Wind Profile Meteogram Temp Stats Airport Information Weather charts Add Link Nearby VenuesMetar ALERT Operation Metar Decoded Social comments